Time;durP1;ratioP1;P1;durP2;ratioP2;P2;SDS_P1;SDS_P2;PMS_P1;PMS_P2;Temp;Humidity;BMP_temperature;BMP_pressure;BME280_temperature;BME280_humidity;BME280_pressure;Samples;Min_cycle;Max_cycle;Signal;HPM_P1;HPM_P2
2021/01/01 18:32:40;;;;;;;2.80;1.77;;;17.70;44.30;;;;;;5766670;24;20419;-52
2021/01/01 18:35:08;;;;;;;8.65;2.40;;;17.70;44.30;;;;;;4846359;29;20045;-54
2021/01/01 18:37:34;;;;;;;10.02;3.20;;;17.70;44.50;;;;;;4854528;29;20541;-52
2021/01/01 18:40:01;;;;;;;7.70;3.35;;;17.70;44.70;;;;;;4859343;29;20050;-49
2021/01/01 18:42:30;;;;;;;6.13;2.45;;;17.70;44.90;;;;;;4859225;29;20056;-51
2021/01/01 18:44:59;;;;;;;4.00;2.65;;;17.70;45.20;;;;;;4856156;29;20056;-51
2021/01/01 18:47:29;;;;;;;5.10;2.90;;;17.80;45.50;;;;;;4855693;29;20557;-54
2021/01/01 18:49:59;;;;;;;6.07;2.08;;;17.80;45.80;;;;;;4859236;29;20046;-51
2021/01/01 18:52:27;;;;;;;4.18;3.08;;;17.80;46.00;;;;;;4864071;29;20124;-51
2021/01/01 18:54:56;;;;;;;3.67;2.17;;;17.80;46.20;;;;;;4861448;29;20061;-55
2021/01/01 18:57:26;;;;;;;6.68;3.53;;;17.80;46.50;;;;;;4855709;29;20546;-50
2021/01/01 19:00:15;;;;;;;3.65;2.15;;;17.80;46.80;;;;;;4865685;29;20063;-52
2021/01/01 19:03:25;;;;;;;4.38;2.58;;;17.80;46.80;;;;;;4858673;29;20081;-50
2021/01/01 19:06:19;;;;;;;4.95;3.25;;;17.80;47.10;;;;;;4857936;29;20053;-53
2021/01/01 19:08:51;;;;;;;5.10;2.95;;;17.80;47.50;;;;;;4856382;29;20435;-56
2021/01/01 19:11:20;;;;;;;7.88;3.40;;;17.80;47.90;;;;;;4858502;29;20494;-53
2021/01/01 19:13:49;;;;;;;9.07;2.78;;;17.80;48.10;;;;;;4858010;29;20049;-53
2021/01/01 19:16:20;;;;;;;8.70;4.28;;;17.80;48.40;;;;;;4861196;29;20402;-56
2021/01/01 19:19:02;;;;;;;18.95;4.40;;;17.80;48.60;;;;;;4859399;29;20057;-54
2021/01/01 19:21:31;;;;;;;5.15;2.90;;;17.80;48.80;;;;;;4860759;29;20053;-52
2021/01/01 19:23:58;;;;;;;5.43;3.30;;;17.80;48.90;;;;;;4854630;29;20045;-50
2021/01/01 19:26:26;;;;;;;4.22;3.20;;;17.80;49.30;;;;;;4861260;29;20052;-53
2021/01/01 19:29:01;;;;;;;6.20;2.75;;;17.80;49.70;;;;;;4856874;29;20700;-52
2021/01/01 19:31:34;;;;;;;8.35;3.60;;;17.90;50.20;;;;;;4854981;29;20433;-52
2021/01/01 19:34:55;;;;;;;4.03;3.03;;;17.80;50.40;;;;;;4856110;29;20064;-52
2021/01/01 19:38:10;;;;;;;5.82;3.35;;;17.90;50.70;;;;;;4857426;29;20088;-55
2021/01/01 19:41:10;;;;;;;4.25;3.00;;;17.90;50.90;;;;;;4852116;29;20098;-52
2021/01/01 19:44:11;;;;;;;5.57;2.75;;;17.80;51.30;;;;;;4841998;29;20060;-52
2021/01/01 19:46:57;;;;;;;3.40;2.97;;;17.90;51.60;;;;;;4851746;29;20109;-55
2021/01/01 19:49:48;;;;;;;8.02;3.67;;;17.80;52.00;;;;;;4858823;29;20049;-54
2021/01/01 19:52:22;;;;;;;5.45;3.72;;;17.90;51.90;;;;;;4861999;29;20125;-49
2021/01/01 19:54:51;;;;;;;5.50;3.03;;;17.80;51.70;;;;;;4845535;29;20046;-50
2021/01/01 19:57:41;;;;;;;4.22;3.13;;;17.80;52.00;;;;;;4855937;29;20157;-53
2021/01/01 20:00:09;;;;;;;5.72;3.03;;;17.90;52.30;;;;;;4853595;29;20061;-52
2021/01/01 20:02:57;;;;;;;5.75;3.75;;;17.90;52.40;;;;;;4843925;29;20115;-52
2021/01/01 20:05:31;;;;;;;4.78;3.08;;;17.90;52.60;;;;;;4859543;29;20064;-57
2021/01/01 20:08:03;;;;;;;7.57;3.08;;;17.90;52.70;;;;;;4858720;29;20122;-55
2021/01/01 20:10:31;;;;;;;4.45;3.42;;;17.90;52.80;;;;;;4851441;29;20419;-53
2021/01/01 20:12:58;;;;;;;13.27;3.63;;;17.90;52.90;;;;;;4846425;29;20049;-54
2021/01/01 20:15:25;;;;;;;5.75;3.13;;;17.90;53.10;;;;;;4854021;29;20082;-51
2021/01/01 20:17:55;;;;;;;4.35;3.45;;;17.90;53.30;;;;;;4849852;29;20058;-57
2021/01/01 20:20:22;;;;;;;9.50;3.50;;;17.90;53.50;;;;;;4852330;29;20061;-53
2021/01/01 20:22:49;;;;;;;4.35;3.35;;;17.90;53.50;;;;;;4851173;29;20058;-53
2021/01/01 20:25:18;;;;;;;4.95;3.50;;;17.90;53.70;;;;;;4838283;29;20073;-50
2021/01/01 20:27:48;;;;;;;7.07;3.90;;;17.90;53.90;;;;;;4854022;29;20081;-55
2021/01/01 20:30:19;;;;;;;12.48;3.50;;;18.00;54.00;;;;;;4848679;29;20470;-51
2021/01/01 20:32:57;;;;;;;7.00;3.58;;;18.00;54.20;;;;;;4852073;29;20855;-54
2021/01/01 20:35:36;;;;;;;10.00;3.95;;;18.00;54.30;;;;;;4852935;29;20129;-50
2021/01/01 20:38:27;;;;;;;7.90;3.80;;;18.00;54.50;;;;;;4850028;29;20041;-55
2021/01/01 20:41:25;;;;;;;4.60;3.08;;;18.00;54.40;;;;;;4850127;29;20096;-54
2021/01/01 20:44:21;;;;;;;22.85;10.13;;;18.00;54.50;;;;;;4853474;29;20114;-51
2021/01/01 20:55:39;;;;;;;33.95;11.30;;;18.00;55.00;;;;;;4855392;29;20192;-53
2021/01/01 20:58:09;;;;;;;22.60;12.07;;;18.00;54.90;;;;;;4858218;29;20069;-51
2021/01/01 21:00:40;;;;;;;34.50;11.75;;;18.00;54.90;;;;;;4861490;29;20107;-54
2021/01/01 21:03:07;;;;;;;27.88;11.30;;;18.00;55.00;;;;;;4858823;29;20064;-55
2021/01/01 21:05:37;;;;;;;28.17;10.90;;;18.00;55.00;;;;;;4859716;29;20049;-54
2021/01/01 21:08:38;;;;;;;30.50;11.18;;;18.00;55.10;;;;;;4856388;29;20158;-53
2021/01/01 21:11:34;;;;;;;21.92;9.80;;;18.00;55.20;;;;;;4856330;29;20064;-52
2021/01/01 21:14:34;;;;;;;28.83;10.75;;;18.00;55.10;;;;;;4855607;29;20049;-50
2021/01/01 21:17:11;;;;;;;29.38;10.75;;;18.00;55.10;;;;;;4774372;30;20044;-54
2021/01/01 21:20:12;;;;;;;30.20;10.98;;;18.00;55.10;;;;;;4775955;30;20066;-54
2021/01/01 21:22:51;;;;;;;28.83;10.48;;;18.00;55.00;;;;;;4761773;30;20055;-54
2021/01/01 21:25:58;;;;;;;22.63;9.13;;;18.00;55.10;;;;;;4784474;29;20475;-52
2021/01/01 21:28:57;;;;;;;18.83;9.75;;;18.00;55.30;;;;;;4779824;29;20051;-55
2021/01/01 21:31:47;;;;;;;24.23;8.70;;;18.00;55.00;;;;;;4780651;29;20066;-54
2021/01/01 21:35:08;;;;;;;22.00;7.88;;;18.00;55.00;;;;;;4783261;29;20105;-50
2021/01/01 21:38:10;;;;;;;18.67;8.32;;;18.00;54.80;;;;;;4773482;29;20055;-53
2021/01/01 21:40:56;;;;;;;16.83;6.95;;;18.00;53.10;;;;;;4708283;30;20045;-54
2021/01/01 21:44:00;;;;;;;17.38;7.80;;;18.00;54.00;;;;;;4712533;30;20065;-54
2021/01/01 21:47:17;;;;;;;18.20;6.35;;;17.90;54.10;;;;;;4710242;30;20064;-52
2021/01/01 21:49:51;;;;;;;17.10;8.13;;;17.90;54.20;;;;;;4706393;30;20487;-50
2021/01/01 21:52:21;;;;;;;10.02;6.13;;;17.90;54.50;;;;;;4713626;30;20062;-55
2021/01/01 21:54:50;;;;;;;15.50;6.30;;;17.90;55.30;;;;;;4768367;30;20048;-53
2021/01/01 21:57:17;;;;;;;14.18;5.60;;;17.90;54.80;;;;;;4778619;29;20496;-53
2021/01/01 21:59:44;;;;;;;17.63;6.22;;;17.90;54.90;;;;;;4780650;29;20130;-52
2021/01/01 22:02:12;;;;;;;12.02;6.25;;;17.90;55.10;;;;;;4780703;29;20054;-51
2021/01/01 22:04:42;;;;;;;11.45;5.75;;;18.00;55.30;;;;;;4779780;30;20047;-50
2021/01/01 22:07:10;;;;;;;12.68;5.88;;;18.00;55.50;;;;;;4781286;29;20536;-53
2021/01/01 22:09:38;;;;;;;8.77;4.38;;;18.00;55.50;;;;;;4780401;29;20103;-53
2021/01/01 22:12:07;;;;;;;12.38;4.57;;;18.00;55.50;;;;;;4777619;29;20055;-52
2021/01/01 22:14:34;;;;;;;6.95;4.70;;;18.00;55.60;;;;;;4778618;30;20074;-55
2021/01/01 22:17:01;;;;;;;7.88;5.47;;;18.00;55.50;;;;;;4804515;29;20486;-52
2021/01/01 22:19:28;;;;;;;12.95;5.28;;;18.00;55.40;;;;;;4861231;29;20049;-49
2021/01/01 22:21:55;;;;;;;10.85;4.53;;;18.00;55.10;;;;;;4849245;29;20058;-49
2021/01/01 22:24:22;;;;;;;18.65;5.15;;;18.10;55.20;;;;;;4853267;29;20050;-48
2021/01/01 22:26:52;;;;;;;10.68;4.85;;;18.10;55.40;;;;;;4847298;29;20073;-49
2021/01/01 22:29:19;;;;;;;9.82;4.10;;;18.10;55.40;;;;;;4847605;29;20045;-54
2021/01/01 22:31:46;;;;;;;8.50;4.57;;;18.10;55.40;;;;;;4848760;29;20172;-55
2021/01/01 22:34:13;;;;;;;9.57;4.15;;;18.20;55.40;;;;;;4850107;29;20529;-50
2021/01/01 22:36:41;;;;;;;11.95;4.40;;;18.20;55.40;;;;;;4854252;29;20105;-51
2021/01/01 22:39:09;;;;;;;205.55;75.80;;;18.20;55.40;;;;;;4856874;29;20045;-47
2021/01/01 22:41:35;;;;;;;46.00;20.98;;;18.20;55.40;;;;;;4856275;29;20465;-57
2021/01/01 22:44:03;;;;;;;36.60;16.17;;;18.20;55.40;;;;;;4853843;29;20514;-57
2021/01/01 22:46:30;;;;;;;48.58;17.30;;;18.20;55.20;;;;;;4854270;29;20050;-49
2021/01/01 22:48:57;;;;;;;48.72;15.65;;;18.30;55.70;;;;;;4859301;29;20406;-54
2021/01/01 22:51:23;;;;;;;63.45;15.98;;;18.30;55.70;;;;;;4851312;29;20054;-52
2021/01/01 22:53:50;;;;;;;46.33;13.95;;;18.30;56.00;;;;;;4857303;29;20053;-54
2021/01/01 22:56:18;;;;;;;42.13;13.82;;;18.30;55.90;;;;;;4841130;29;20050;-52
2021/01/01 22:58:50;;;;;;;29.58;11.80;;;18.30;56.30;;;;;;4856828;29;20395;-46
2021/01/01 23:01:19;;;;;;;35.38;12.00;;;18.30;56.00;;;;;;4831565;29;20537;-51
2021/01/01 23:03:50;;;;;;;42.45;13.05;;;18.30;56.00;;;;;;4850761;29;20065;-52
2021/01/01 23:06:21;;;;;;;32.30;13.27;;;18.30;56.20;;;;;;4851850;29;20052;-51
2021/01/01 23:08:49;;;;;;;78.30;28.42;;;18.30;56.10;;;;;;4848954;29;20042;-51
2021/01/01 23:11:16;;;;;;;68.57;27.52;;;18.30;56.20;;;;;;4851343;29;20084;-56
2021/01/01 23:13:44;;;;;;;76.38;26.63;;;18.30;55.90;;;;;;4851752;29;20463;-49
2021/01/01 23:16:12;;;;;;;63.17;24.38;;;18.30;56.20;;;;;;4850801;29;20069;-47
2021/01/01 23:18:51;;;;;;;61.78;25.25;;;18.30;55.90;;;;;;4850038;29;20049;-47
2021/01/01 23:21:22;;;;;;;64.43;26.38;;;18.30;56.10;;;;;;4851873;29;20046;-50
2021/01/01 23:23:53;;;;;;;67.70;23.98;;;18.30;56.20;;;;;;4855740;29;20056;-51
2021/01/01 23:26:39;;;;;;;59.10;22.55;;;18.30;55.70;;;;;;4859375;29;20049;-47
2021/01/01 23:29:22;;;;;;;47.53;20.25;;;18.30;56.00;;;;;;4858769;29;20272;-51
2021/01/01 23:32:15;;;;;;;50.58;20.77;;;18.30;55.50;;;;;;4855132;29;20073;-47
2021/01/01 23:34:54;;;;;;;57.08;21.70;;;18.30;55.20;;;;;;4855435;29;20086;-51
2021/01/01 23:37:38;;;;;;;53.85;22.52;;;18.30;55.00;;;;;;4857325;29;20137;-47
2021/01/01 23:40:14;;;;;;;51.40;20.35;;;18.30;54.90;;;;;;4855037;29;20854;-53
2021/01/01 23:42:47;;;;;;;55.75;20.55;;;18.40;54.80;;;;;;4861829;29;20062;-49
2021/01/01 23:45:18;;;;;;;45.75;18.70;;;18.30;54.60;;;;;;4858076;29;20049;-49
2021/01/01 23:47:52;;;;;;;47.55;18.92;;;18.40;54.60;;;;;;4860659;29;20429;-46
2021/01/01 23:50:23;;;;;;;51.78;19.90;;;18.30;54.50;;;;;;4858510;29;20052;-53
2021/01/01 23:52:52;;;;;;;45.92;19.42;;;18.30;54.50;;;;;;4858765;29;20034;-50
2021/01/01 23:55:22;;;;;;;44.20;18.58;;;18.30;54.30;;;;;;4855894;29;20046;-47
2021/01/01 23:57:48;;;;;;;66.95;15.93;;;18.30;54.30;;;;;;4862030;29;20147;-53
